sensor_id;sensor_type;location;lat;lon;timestamp;P1;durP1;ratioP1;P2;durP2;ratioP2
55794;SDS011;41716;51.910;4.430;2023-07-09T00:00:50;13.90;;;7.15;;
55794;SDS011;41716;51.910;4.430;2023-07-09T00:05:54;11.27;;;6.93;;
55794;SDS011;41716;51.910;4.430;2023-07-09T00:10:56;12.10;;;6.65;;
55794;SDS011;41716;51.910;4.430;2023-07-09T00:15:59;12.03;;;6.80;;
55794;SDS011;41716;51.910;4.430;2023-07-09T00:21:03;12.18;;;6.75;;
55794;SDS011;41716;51.910;4.430;2023-07-09T00:26:07;12.48;;;7.47;;
55794;SDS011;41716;51.910;4.430;2023-07-09T00:31:11;10.70;;;7.10;;
55794;SDS011;41716;51.910;4.430;2023-07-09T00:36:16;10.85;;;6.53;;
55794;SDS011;41716;51.910;4.430;2023-07-09T00:41:20;11.10;;;7.10;;
55794;SDS011;41716;51.910;4.430;2023-07-09T00:51:45;12.45;;;7.32;;
55794;SDS011;41716;51.910;4.430;2023-07-09T00:56:49;12.45;;;7.68;;
55794;SDS011;41716;51.910;4.430;2023-07-09T01:01:53;13.32;;;7.70;;
55794;SDS011;41716;51.910;4.430;2023-07-09T01:06:56;15.05;;;7.70;;
55794;SDS011;41716;51.910;4.430;2023-07-09T01:17:01;13.00;;;7.65;;
55794;SDS011;41716;51.910;4.430;2023-07-09T01:27:07;12.90;;;7.97;;
55794;SDS011;41716;51.910;4.430;2023-07-09T01:37:11;13.43;;;8.63;;
55794;SDS011;41716;51.910;4.430;2023-07-09T01:42:15;14.35;;;8.40;;
55794;SDS011;41716;51.910;4.430;2023-07-09T01:47:17;11.65;;;7.82;;
55794;SDS011;41716;51.910;4.430;2023-07-09T01:52:19;16.52;;;8.80;;
55794;SDS011;41716;51.910;4.430;2023-07-09T01:57:24;12.30;;;8.57;;
55794;SDS011;41716;51.910;4.430;2023-07-09T02:02:32;12.75;;;7.53;;
55794;SDS011;41716;51.910;4.430;2023-07-09T02:07:36;12.98;;;7.05;;
55794;SDS011;41716;51.910;4.430;2023-07-09T02:12:39;13.25;;;7.05;;
55794;SDS011;41716;51.910;4.430;2023-07-09T02:22:44;13.38;;;7.07;;
55794;SDS011;41716;51.910;4.430;2023-07-09T02:27:47;9.30;;;6.47;;
55794;SDS011;41716;51.910;4.430;2023-07-09T02:37:54;13.68;;;8.13;;
55794;SDS011;41716;51.910;4.430;2023-07-09T02:42:58;12.18;;;7.47;;
55794;SDS011;41716;51.910;4.430;2023-07-09T02:48:00;13.07;;;7.20;;
55794;SDS011;41716;51.910;4.430;2023-07-09T02:53:02;14.63;;;7.38;;
55794;SDS011;41716;51.910;4.430;2023-07-09T02:58:05;15.52;;;7.10;;
55794;SDS011;41716;51.910;4.430;2023-07-09T03:03:07;11.18;;;6.25;;
55794;SDS011;41716;51.910;4.430;2023-07-09T03:08:09;13.23;;;7.40;;
55794;SDS011;41716;51.910;4.430;2023-07-09T03:13:13;14.55;;;8.43;;
55794;SDS011;41716;51.910;4.430;2023-07-09T03:18:15;15.27;;;9.10;;
55794;SDS011;41716;51.910;4.430;2023-07-09T03:23:17;15.90;;;9.50;;
55794;SDS011;41716;51.910;4.430;2023-07-09T03:28:20;17.23;;;9.07;;
55794;SDS011;41716;51.910;4.430;2023-07-09T03:38:24;12.88;;;7.82;;
55794;SDS011;41716;51.910;4.430;2023-07-09T03:43:27;11.25;;;6.75;;
55794;SDS011;41716;51.910;4.430;2023-07-09T03:48:29;12.85;;;6.82;;
55794;SDS011;41716;51.910;4.430;2023-07-09T03:53:31;11.93;;;6.57;;
55794;SDS011;41716;51.910;4.430;2023-07-09T03:58:35;12.98;;;6.80;;
55794;SDS011;41716;51.910;4.430;2023-07-09T04:03:37;13.00;;;6.88;;
55794;SDS011;41716;51.910;4.430;2023-07-09T04:08:39;11.98;;;6.50;;
55794;SDS011;41716;51.910;4.430;2023-07-09T04:13:43;13.38;;;7.13;;
55794;SDS011;41716;51.910;4.430;2023-07-09T04:18:45;11.35;;;5.70;;
55794;SDS011;41716;51.910;4.430;2023-07-09T04:23:47;12.52;;;6.07;;
55794;SDS011;41716;51.910;4.430;2023-07-09T04:28:50;10.50;;;5.68;;
55794;SDS011;41716;51.910;4.430;2023-07-09T04:33:52;12.55;;;6.65;;
55794;SDS011;41716;51.910;4.430;2023-07-09T04:38:54;13.02;;;6.13;;
55794;SDS011;41716;51.910;4.430;2023-07-09T04:43:58;12.40;;;6.32;;
55794;SDS011;41716;51.910;4.430;2023-07-09T04:49:00;10.63;;;6.25;;
55794;SDS011;41716;51.910;4.430;2023-07-09T04:54:02;10.73;;;6.50;;
55794;SDS011;41716;51.910;4.430;2023-07-09T04:59:06;12.80;;;7.07;;
55794;SDS011;41716;51.910;4.430;2023-07-09T05:04:08;12.00;;;7.55;;
55794;SDS011;41716;51.910;4.430;2023-07-09T05:09:10;14.98;;;8.10;;
55794;SDS011;41716;51.910;4.430;2023-07-09T05:14:13;13.68;;;8.30;;
55794;SDS011;41716;51.910;4.430;2023-07-09T05:19:15;15.60;;;8.73;;
55794;SDS011;41716;51.910;4.430;2023-07-09T05:24:17;18.48;;;11.52;;
55794;SDS011;41716;51.910;4.430;2023-07-09T05:29:20;22.27;;;13.70;;
55794;SDS011;41716;51.910;4.430;2023-07-09T05:34:22;25.27;;;16.08;;
55794;SDS011;41716;51.910;4.430;2023-07-09T05:39:24;25.20;;;16.42;;
55794;SDS011;41716;51.910;4.430;2023-07-09T05:44:28;26.38;;;16.05;;
55794;SDS011;41716;51.910;4.430;2023-07-09T05:49:30;24.83;;;16.75;;
55794;SDS011;41716;51.910;4.430;2023-07-09T05:54:32;24.17;;;15.95;;
55794;SDS011;41716;51.910;4.430;2023-07-09T05:59:37;21.35;;;14.13;;
55794;SDS011;41716;51.910;4.430;2023-07-09T06:04:39;24.83;;;15.02;;
55794;SDS011;41716;51.910;4.430;2023-07-09T06:09:42;21.20;;;14.00;;
55794;SDS011;41716;51.910;4.430;2023-07-09T06:14:47;20.40;;;14.32;;
55794;SDS011;41716;51.910;4.430;2023-07-09T06:19:49;22.50;;;13.95;;
55794;SDS011;41716;51.910;4.430;2023-07-09T06:24:51;23.65;;;16.17;;
55794;SDS011;41716;51.910;4.430;2023-07-09T06:29:54;24.73;;;14.95;;
55794;SDS011;41716;51.910;4.430;2023-07-09T06:34:56;25.10;;;14.85;;
55794;SDS011;41716;51.910;4.430;2023-07-09T06:39:58;19.38;;;12.30;;
55794;SDS011;41716;51.910;4.430;2023-07-09T06:45:04;22.30;;;13.50;;
55794;SDS011;41716;51.910;4.430;2023-07-09T06:50:06;19.13;;;12.68;;
55794;SDS011;41716;51.910;4.430;2023-07-09T06:55:09;19.73;;;11.75;;
55794;SDS011;41716;51.910;4.430;2023-07-09T07:00:13;15.55;;;9.73;;
55794;SDS011;41716;51.910;4.430;2023-07-09T07:05:15;12.63;;;6.25;;
55794;SDS011;41716;51.910;4.430;2023-07-09T07:10:18;8.83;;;5.30;;
55794;SDS011;41716;51.910;4.430;2023-07-09T07:15:21;9.00;;;5.15;;
55794;SDS011;41716;51.910;4.430;2023-07-09T07:20:24;9.05;;;4.63;;
55794;SDS011;41716;51.910;4.430;2023-07-09T07:25:26;8.52;;;4.82;;
55794;SDS011;41716;51.910;4.430;2023-07-09T07:30:29;8.32;;;4.78;;
55794;SDS011;41716;51.910;4.430;2023-07-09T07:35:31;5.85;;;3.65;;
55794;SDS011;41716;51.910;4.430;2023-07-09T07:40:33;8.95;;;4.55;;
55794;SDS011;41716;51.910;4.430;2023-07-09T07:45:37;7.72;;;3.90;;
55794;SDS011;41716;51.910;4.430;2023-07-09T07:50:41;6.03;;;3.75;;
55794;SDS011;41716;51.910;4.430;2023-07-09T07:55:46;8.80;;;4.38;;
55794;SDS011;41716;51.910;4.430;2023-07-09T08:00:49;7.50;;;3.58;;
55794;SDS011;41716;51.910;4.430;2023-07-09T08:10:59;6.35;;;3.55;;
55794;SDS011;41716;51.910;4.430;2023-07-09T08:16:06;7.80;;;4.32;;
55794;SDS011;41716;51.910;4.430;2023-07-09T08:21:11;7.95;;;5.00;;
55794;SDS011;41716;51.910;4.430;2023-07-09T08:26:13;9.38;;;4.18;;
55794;SDS011;41716;51.910;4.430;2023-07-09T08:31:16;7.57;;;3.92;;
55794;SDS011;41716;51.910;4.430;2023-07-09T08:36:19;9.40;;;4.25;;
55794;SDS011;41716;51.910;4.430;2023-07-09T08:41:25;6.60;;;3.63;;
55794;SDS011;41716;51.910;4.430;2023-07-09T08:46:32;6.03;;;3.03;;
55794;SDS011;41716;51.910;4.430;2023-07-09T08:51:38;7.22;;;3.72;;
55794;SDS011;41716;51.910;4.430;2023-07-09T08:56:40;4.70;;;2.92;;
55794;SDS011;41716;51.910;4.430;2023-07-09T09:01:49;4.85;;;2.28;;
55794;SDS011;41716;51.910;4.430;2023-07-09T09:06:51;5.90;;;2.47;;
55794;SDS011;41716;51.910;4.430;2023-07-09T09:11:59;4.97;;;2.78;;
55794;SDS011;41716;51.910;4.430;2023-07-09T09:17:09;5.75;;;2.75;;
55794;SDS011;41716;51.910;4.430;2023-07-09T09:22:13;4.47;;;2.00;;
55794;SDS011;41716;51.910;4.430;2023-07-09T09:27:16;3.40;;;1.88;;
55794;SDS011;41716;51.910;4.430;2023-07-09T09:32:21;3.33;;;2.00;;
55794;SDS011;41716;51.910;4.430;2023-07-09T09:37:25;3.80;;;1.90;;
55794;SDS011;41716;51.910;4.430;2023-07-09T09:42:28;4.88;;;2.05;;
55794;SDS011;41716;51.910;4.430;2023-07-09T09:47:31;4.65;;;2.08;;
55794;SDS011;41716;51.910;4.430;2023-07-09T09:52:33;3.88;;;2.03;;
55794;SDS011;41716;51.910;4.430;2023-07-09T09:57:35;3.75;;;1.80;;
55794;SDS011;41716;51.910;4.430;2023-07-09T10:02:39;4.63;;;1.77;;
55794;SDS011;41716;51.910;4.430;2023-07-09T10:07:43;3.53;;;1.60;;
55794;SDS011;41716;51.910;4.430;2023-07-09T10:12:47;3.38;;;1.50;;
55794;SDS011;41716;51.910;4.430;2023-07-09T10:17:56;3.67;;;1.48;;
55794;SDS011;41716;51.910;4.430;2023-07-09T10:23:01;2.47;;;1.35;;
55794;SDS011;41716;51.910;4.430;2023-07-09T10:28:23;1.65;;;1.02;;
55794;SDS011;41716;51.910;4.430;2023-07-09T10:33:34;2.33;;;1.02;;
55794;SDS011;41716;51.910;4.430;2023-07-09T10:38:42;3.53;;;1.35;;
55794;SDS011;41716;51.910;4.430;2023-07-09T10:43:48;3.28;;;1.48;;
55794;SDS011;41716;51.910;4.430;2023-07-09T10:48:53;4.40;;;1.48;;
55794;SDS011;41716;51.910;4.430;2023-07-09T10:53:57;2.75;;;1.55;;
55794;SDS011;41716;51.910;4.430;2023-07-09T10:59:01;2.65;;;1.42;;
55794;SDS011;41716;51.910;4.430;2023-07-09T11:04:08;5.43;;;1.58;;
55794;SDS011;41716;51.910;4.430;2023-07-09T11:09:14;3.28;;;1.60;;
55794;SDS011;41716;51.910;4.430;2023-07-09T11:14:22;2.83;;;1.45;;
55794;SDS011;41716;51.910;4.430;2023-07-09T11:19:27;3.85;;;1.70;;
55794;SDS011;41716;51.910;4.430;2023-07-09T11:29:32;2.90;;;1.65;;
55794;SDS011;41716;51.910;4.430;2023-07-09T11:34:35;2.58;;;1.40;;
55794;SDS011;41716;51.910;4.430;2023-07-09T11:39:46;4.78;;;1.42;;
55794;SDS011;41716;51.910;4.430;2023-07-09T11:44:49;2.78;;;1.40;;
55794;SDS011;41716;51.910;4.430;2023-07-09T11:49:55;3.10;;;1.52;;
55794;SDS011;41716;51.910;4.430;2023-07-09T11:55:01;4.22;;;1.48;;
55794;SDS011;41716;51.910;4.430;2023-07-09T12:00:03;3.00;;;1.40;;
55794;SDS011;41716;51.910;4.430;2023-07-09T12:05:07;3.53;;;1.70;;
55794;SDS011;41716;51.910;4.430;2023-07-09T12:10:15;3.30;;;1.75;;
55794;SDS011;41716;51.910;4.430;2023-07-09T12:15:21;4.75;;;2.22;;
55794;SDS011;41716;51.910;4.430;2023-07-09T12:20:25;4.50;;;2.00;;
55794;SDS011;41716;51.910;4.430;2023-07-09T12:25:27;6.18;;;3.03;;
55794;SDS011;41716;51.910;4.430;2023-07-09T12:30:32;4.18;;;1.98;;
55794;SDS011;41716;51.910;4.430;2023-07-09T12:40:38;7.85;;;2.28;;
55794;SDS011;41716;51.910;4.430;2023-07-09T12:45:43;5.28;;;2.13;;
55794;SDS011;41716;51.910;4.430;2023-07-09T12:50:48;6.78;;;1.92;;
55794;SDS011;41716;51.910;4.430;2023-07-09T12:55:54;6.65;;;2.63;;
55794;SDS011;41716;51.910;4.430;2023-07-09T13:00:57;6.20;;;2.08;;
55794;SDS011;41716;51.910;4.430;2023-07-09T13:06:00;8.20;;;3.17;;
55794;SDS011;41716;51.910;4.430;2023-07-09T13:11:13;10.57;;;3.85;;
55794;SDS011;41716;51.910;4.430;2023-07-09T13:16:15;10.32;;;3.22;;
55794;SDS011;41716;51.910;4.430;2023-07-09T13:21:18;9.30;;;3.50;;
55794;SDS011;41716;51.910;4.430;2023-07-09T13:26:22;9.60;;;4.35;;
55794;SDS011;41716;51.910;4.430;2023-07-09T13:36:26;7.75;;;3.08;;
55794;SDS011;41716;51.910;4.430;2023-07-09T13:41:29;7.65;;;3.08;;
55794;SDS011;41716;51.910;4.430;2023-07-09T13:51:33;9.15;;;2.70;;
55794;SDS011;41716;51.910;4.430;2023-07-09T13:56:37;6.10;;;2.28;;
